createdAt,value
2019-04-21T00:02:21.440Z,3.90
2019-04-21T00:04:56.908Z,4.00
2019-04-21T00:07:31.374Z,3.90
2019-04-21T00:09:59.005Z,3.80
2019-04-21T00:12:26.947Z,3.80
2019-04-21T00:14:46.056Z,3.80
2019-04-21T00:17:10.671Z,3.80
2019-04-21T00:19:49.745Z,3.90
2019-04-21T00:22:33.166Z,3.90
2019-04-21T00:24:58.379Z,3.70
2019-04-21T00:27:31.018Z,3.70
2019-04-21T00:29:58.032Z,3.70
2019-04-21T00:32:21.838Z,3.60
2019-04-21T00:34:42.030Z,3.60
2019-04-21T00:37:15.233Z,3.50
2019-04-21T00:40:01.924Z,3.50
2019-04-21T00:42:19.483Z,3.50
2019-04-21T00:44:44.293Z,3.40
2019-04-21T00:47:23.236Z,3.30
2019-04-21T00:49:53.880Z,3.30
2019-04-21T00:52:39.892Z,3.30
2019-04-21T00:55:10.126Z,3.30
2019-04-21T00:57:27.733Z,3.40
2019-04-21T00:59:52.182Z,3.30
2019-04-21T01:02:17.920Z,3.30
2019-04-21T01:04:53.889Z,3.20
2019-04-21T01:07:12.584Z,3.20
2019-04-21T01:09:39.863Z,3.10
2019-04-21T01:12:12.260Z,3.00
2019-04-21T01:14:50.266Z,2.90
2019-04-21T01:17:14.584Z,2.90
2019-04-21T01:19:33.436Z,2.90
2019-04-21T01:21:44.045Z,3.00
2019-04-21T01:24:19.281Z,3.00
2019-04-21T01:26:47.079Z,3.10
2019-04-21T01:29:19.547Z,3.00
2019-04-21T01:32:02.068Z,2.90
2019-04-21T01:34:24.907Z,2.80
2019-04-21T01:36:51.368Z,2.80
2019-04-21T01:39:22.521Z,2.70
2019-04-21T01:41:52.587Z,2.60
2019-04-21T01:44:25.066Z,2.60
2019-04-21T01:46:42.802Z,2.50
2019-04-21T01:49:09.211Z,2.50
2019-04-21T01:51:59.716Z,2.40
2019-04-21T01:54:14.743Z,2.30
2019-04-21T01:56:46.583Z,2.30
2019-04-21T01:59:03.780Z,2.30
2019-04-21T02:01:42.470Z,2.40
2019-04-21T02:04:22.783Z,2.20
2019-04-21T02:06:39.107Z,2.30
2019-04-21T02:09:06.255Z,2.20
2019-04-21T02:11:35.760Z,2.10
2019-04-21T02:14:25.539Z,2.00
2019-04-21T02:16:34.592Z,2.10
2019-04-21T02:18:58.448Z,2.10
2019-04-21T02:21:22.139Z,2.10
2019-04-21T02:24:04.766Z,2.20
2019-04-21T02:26:28.459Z,2.20
2019-04-21T02:34:00.286Z,2.20
2019-04-21T02:44:02.555Z,2.10
2019-04-21T02:46:31.319Z,2.00
2019-04-21T02:48:56.465Z,2.00
2019-04-21T02:51:19.363Z,1.90
2019-04-21T02:54:10.460Z,1.80
2019-04-21T02:56:20.402Z,1.90
2019-04-21T03:03:54.424Z,1.70
2019-04-21T03:06:24.823Z,1.70
2019-04-21T03:08:59.057Z,1.60
2019-04-21T03:11:14.462Z,1.60
2019-04-21T03:13:56.803Z,1.60
2019-04-21T03:23:46.767Z,1.50
2019-04-21T03:38:37.747Z,1.50
2019-04-21T03:41:01.009Z,1.60
2019-04-21T03:46:12.453Z,1.50
2019-04-21T03:50:50.888Z,1.50
2019-04-21T03:53:18.586Z,1.50
2019-04-21T04:01:02.830Z,1.40
2019-04-21T04:06:13.368Z,1.50
2019-04-21T04:13:52.134Z,1.50
2019-04-21T04:16:11.408Z,1.60
2019-04-21T04:18:51.179Z,1.50
2019-04-21T04:23:41.582Z,1.60
2019-04-21T04:25:57.696Z,1.60
2019-04-21T04:28:40.610Z,1.70
2019-04-21T04:30:52.013Z,1.80
2019-04-21T04:33:39.259Z,1.90
2019-04-21T04:36:08.296Z,2.00
2019-04-21T04:40:55.554Z,2.10
2019-04-21T04:48:24.134Z,2.30
2019-04-21T04:53:25.842Z,2.50
2019-04-21T04:58:18.023Z,2.70
2019-04-21T05:03:14.373Z,3.00
2019-04-21T05:06:23.758Z,3.10
2019-04-21T05:08:56.366Z,3.20
2019-04-21T05:11:10.059Z,3.30
2019-04-21T05:13:35.145Z,3.50
2019-04-21T05:16:01.562Z,3.70
2019-04-21T05:18:34.886Z,3.90
2019-04-21T05:21:03.578Z,4.00
2019-04-21T05:23:18.398Z,4.30
2019-04-21T05:25:37.789Z,4.60
2019-04-21T05:28:06.354Z,4.80
2019-04-21T05:30:50.223Z,5.00
2019-04-21T05:33:34.445Z,5.40
2019-04-21T05:36:14.270Z,5.70
2019-04-21T05:38:43.590Z,6.10
2019-04-21T05:41:06.309Z,6.50
2019-04-21T05:43:39.211Z,6.80
2019-04-21T05:46:13.749Z,7.10
2019-04-21T05:48:39.215Z,7.40
2019-04-21T05:51:03.572Z,7.70
2019-04-21T05:53:36.180Z,8.00
2019-04-21T05:56:12.495Z,8.40
2019-04-21T05:58:36.657Z,8.90
2019-04-21T06:01:23.806Z,9.50
2019-04-21T06:03:44.537Z,10.20
2019-04-21T06:06:19.016Z,10.80
2019-04-21T06:08:38.958Z,11.60
2019-04-21T06:11:07.246Z,11.90
2019-04-21T06:13:42.765Z,12.30
2019-04-21T06:16:05.951Z,12.80
2019-04-21T06:18:35.351Z,12.90
2019-04-21T06:21:01.389Z,13.10
2019-04-21T06:23:27.326Z,13.70
2019-04-21T06:26:12.217Z,14.80
2019-04-21T06:28:30.598Z,14.70
2019-04-21T06:31:01.513Z,14.90
2019-04-21T06:33:22.122Z,15.30
2019-04-21T06:38:54.241Z,16.00
2019-04-21T06:41:13.079Z,16.00
2019-04-21T06:46:11.052Z,17.00
2019-04-21T06:48:40.961Z,17.20
2019-04-21T06:51:09.372Z,17.70
2019-04-21T06:53:39.746Z,17.90
2019-04-21T06:56:00.019Z,17.80
2019-04-21T06:58:26.320Z,18.30
2019-04-21T07:00:55.957Z,18.70
2019-04-21T07:03:44.002Z,18.60
2019-04-21T07:05:56.105Z,18.80
2019-04-21T07:10:52.048Z,19.40
2019-04-21T07:13:19.150Z,19.80
2019-04-21T07:16:00.434Z,20.00
2019-04-21T07:18:10.960Z,20.20
2019-04-21T07:20:44.983Z,20.30
2019-04-21T07:23:20.490Z,20.80
2019-04-21T07:25:38.510Z,20.80
2019-04-21T07:28:02.992Z,20.90
2019-04-21T07:30:35.168Z,20.70
2019-04-21T07:33:24.054Z,21.00
2019-04-21T07:35:31.837Z,21.10
2019-04-21T07:38:00.896Z,21.50
2019-04-21T07:40:24.810Z,21.80
2019-04-21T07:42:51.435Z,22.10
2019-04-21T07:45:22.495Z,22.20
2019-04-21T07:47:55.191Z,22.00
2019-04-21T07:50:33.165Z,22.40
2019-04-21T07:53:08.444Z,22.90
2019-04-21T07:57:57.226Z,23.10
2019-04-21T08:03:05.864Z,23.40
2019-04-21T08:05:24.884Z,23.20
2019-04-21T08:07:56.048Z,23.70
2019-04-21T08:10:22.966Z,24.80
2019-04-21T08:12:47.753Z,24.70
2019-04-21T08:15:27.605Z,25.50
2019-04-21T08:17:48.039Z,25.10
2019-04-21T08:20:13.951Z,24.70
2019-04-21T08:22:46.774Z,24.80
2019-04-21T08:25:14.883Z,25.30
2019-04-21T08:27:50.630Z,25.30
2019-04-21T08:30:14.396Z,25.80
2019-04-21T08:32:51.748Z,25.80
2019-04-21T08:35:35.810Z,25.20
2019-04-21T08:37:31.329Z,25.40
2019-04-21T08:42:35.090Z,26.00
2019-04-21T08:45:02.311Z,26.20
2019-04-21T08:47:28.487Z,26.20
2019-04-21T08:49:55.883Z,26.40
2019-04-21T08:52:42.744Z,26.30
2019-04-21T08:54:56.028Z,26.50
2019-04-21T08:57:35.716Z,26.60
2019-04-21T09:00:04.997Z,26.90
2019-04-21T09:02:35.270Z,27.10
2019-04-21T09:04:59.236Z,27.60
2019-04-21T09:09:52.954Z,26.70
2019-04-21T09:12:22.592Z,27.40
2019-04-21T09:14:51.265Z,27.20
2019-04-21T09:17:15.291Z,27.00
2019-04-21T09:22:12.835Z,27.80
2019-04-21T09:24:50.179Z,28.30
2019-04-21T09:27:08.527Z,28.20
2019-04-21T09:29:31.215Z,27.90
2019-04-21T09:31:54.487Z,27.90
2019-04-21T09:34:27.107Z,27.60
2019-04-21T09:36:51.589Z,27.00
2019-04-21T09:39:20.104Z,26.80
2019-04-21T09:41:44.893Z,27.30
2019-04-21T09:44:17.166Z,27.70
2019-04-21T09:46:46.595Z,27.90
2019-04-21T09:49:12.121Z,27.80
2019-04-21T09:51:37.167Z,27.90
2019-04-21T09:54:08.801Z,28.40
2019-04-21T09:56:43.660Z,28.20
2019-04-21T09:59:09.164Z,28.10
2019-04-21T10:01:36.806Z,28.60
2019-04-21T10:04:00.216Z,29.20
2019-04-21T10:06:26.042Z,28.90
2019-04-21T10:08:58.661Z,29.50
2019-04-21T10:11:21.363Z,29.70
2019-04-21T10:13:49.017Z,29.40
2019-04-21T10:16:34.296Z,29.60
2019-04-21T10:19:02.568Z,30.30
2019-04-21T10:21:29.418Z,30.10
2019-04-21T10:23:59.857Z,30.00
2019-04-21T10:26:26.480Z,29.60
2019-04-21T10:28:53.038Z,29.80
2019-04-21T10:31:20.664Z,30.10
2019-04-21T10:33:48.412Z,30.30
2019-04-21T10:36:15.235Z,30.10
2019-04-21T10:38:46.457Z,30.30
2019-04-21T10:41:10.130Z,30.70
2019-04-21T10:43:37.515Z,30.10
2019-04-21T10:46:04.480Z,29.70
2019-04-21T10:48:33.799Z,29.50
2019-04-21T10:50:59.190Z,29.80
2019-04-21T10:53:29.088Z,30.10
2019-04-21T10:56:09.774Z,30.10
2019-04-21T10:58:26.598Z,30.40
2019-04-21T11:00:55.699Z,29.80
2019-04-21T11:03:40.999Z,30.30
2019-04-21T11:06:08.708Z,30.80
2019-04-21T11:08:40.678Z,31.00
2019-04-21T11:11:04.215Z,31.00
2019-04-21T11:13:30.849Z,30.80
2019-04-21T11:15:57.386Z,30.80
2019-04-21T11:18:24.068Z,31.10
2019-04-21T11:20:51.177Z,31.10
2019-04-21T11:23:19.694Z,30.80
2019-04-21T11:25:46.220Z,30.40
2019-04-21T11:28:14.311Z,30.50
2019-04-21T11:30:42.338Z,30.70
2019-04-21T11:33:09.099Z,30.10
2019-04-21T11:35:37.099Z,30.40
2019-04-21T11:38:26.616Z,30.40
2019-04-21T11:40:51.768Z,30.30
2019-04-21T11:43:19.746Z,30.40
2019-04-21T11:45:46.384Z,29.90
2019-04-21T11:48:26.430Z,30.20
2019-04-21T11:50:53.193Z,30.50
2019-04-21T11:53:20.938Z,30.30
2019-04-21T11:55:50.172Z,30.50
2019-04-21T11:58:15.995Z,30.80
2019-04-21T12:00:43.581Z,31.10
2019-04-21T12:03:12.393Z,31.30
2019-04-21T12:05:39.402Z,31.60
2019-04-21T12:08:18.962Z,31.70
2019-04-21T12:10:35.490Z,31.80
2019-04-21T12:13:07.027Z,32.40
2019-04-21T12:15:31.519Z,31.80
2019-04-21T12:17:57.856Z,31.50
2019-04-21T12:20:24.455Z,30.20
2019-04-21T12:22:51.097Z,30.50
2019-04-21T12:25:19.431Z,30.20
2019-04-21T12:27:45.969Z,30.20
2019-04-21T12:30:13.889Z,29.10
2019-04-21T12:32:46.301Z,27.90
2019-04-21T12:35:15.660Z,27.30
2019-04-21T12:37:42.795Z,27.60
2019-04-21T12:40:10.528Z,27.60
2019-04-21T12:42:40.452Z,28.40
2019-04-21T12:45:07.616Z,28.90
2019-04-21T12:47:35.147Z,29.80
2019-04-21T12:50:03.052Z,30.50
2019-04-21T12:52:29.920Z,30.90
2019-04-21T12:54:57.512Z,31.50
2019-04-21T12:57:25.404Z,31.70
2019-04-21T12:59:52.920Z,31.40
2019-04-21T13:02:19.885Z,31.50
2019-04-21T13:04:46.419Z,31.50
2019-04-21T13:07:13.298Z,31.80
2019-04-21T13:09:40.180Z,32.30
2019-04-21T13:12:06.923Z,31.60
2019-04-21T13:14:33.766Z,30.50
2019-04-21T13:17:01.360Z,30.40
2019-04-21T13:19:29.283Z,30.60
2019-04-21T13:21:56.085Z,29.80
2019-04-21T13:24:24.031Z,28.80
2019-04-21T13:26:55.945Z,27.60
2019-04-21T13:29:18.752Z,28.00
2019-04-21T13:31:45.210Z,28.00
2019-04-21T13:34:11.669Z,26.60
2019-04-21T13:36:39.289Z,25.60
2019-04-21T13:39:44.673Z,24.80
2019-04-21T13:41:56.756Z,24.40
2019-04-21T13:44:13.282Z,24.30
2019-04-21T13:46:40.898Z,24.00
2019-04-21T13:49:09.527Z,24.10
2019-04-21T13:51:36.138Z,24.80
2019-04-21T13:54:04.040Z,26.10
2019-04-21T13:56:30.530Z,27.40
2019-04-21T13:58:58.104Z,27.10
2019-04-21T14:01:25.582Z,25.90
2019-04-21T14:03:53.455Z,24.80
2019-04-21T14:06:20.369Z,24.30
2019-04-21T14:08:48.417Z,24.20
2019-04-21T14:11:15.568Z,24.10
2019-04-21T14:13:42.579Z,23.40
2019-04-21T14:16:10.040Z,22.90
2019-04-21T14:18:36.701Z,22.50
2019-04-21T14:21:03.321Z,22.50
2019-04-21T14:23:36.036Z,23.10
2019-04-21T14:25:57.901Z,23.50
2019-04-21T14:28:24.251Z,23.60
2019-04-21T14:30:52.446Z,24.10
2019-04-21T14:33:20.332Z,24.80
2019-04-21T14:35:47.139Z,25.70
2019-04-21T14:38:14.421Z,26.00
2019-04-21T14:40:41.952Z,26.30
2019-04-21T14:43:10.051Z,25.20
2019-04-21T14:45:38.775Z,24.30
2019-04-21T14:48:25.201Z,23.70
2019-04-21T14:51:06.533Z,23.70
2019-04-21T14:53:47.816Z,23.30
2019-04-21T14:56:15.396Z,22.70
2019-04-21T14:58:43.211Z,22.50
2019-04-21T15:01:10.387Z,22.40
2019-04-21T15:03:37.562Z,22.30
2019-04-21T15:06:05.470Z,22.10
2019-04-21T15:08:33.258Z,21.90
2019-04-21T15:11:00.977Z,21.50
2019-04-21T15:13:28.071Z,21.10
2019-04-21T15:15:54.570Z,21.10
2019-04-21T15:18:21.082Z,21.20
2019-04-21T15:20:50.290Z,21.30
2019-04-21T15:23:15.898Z,21.20
2019-04-21T15:25:42.335Z,21.00
2019-04-21T15:28:09.531Z,21.00
2019-04-21T15:30:36.568Z,20.70
2019-04-21T15:33:04.424Z,20.70
2019-04-21T15:35:31.129Z,20.70
2019-04-21T15:37:58.064Z,20.90
2019-04-21T15:40:35.200Z,20.90
2019-04-21T15:42:52.793Z,21.00
2019-04-21T15:45:20.827Z,21.20
2019-04-21T15:47:47.651Z,21.20
2019-04-21T15:50:17.301Z,21.00
2019-04-21T15:52:43.509Z,21.00
2019-04-21T15:55:12.655Z,20.80
2019-04-21T15:57:54.340Z,20.60
2019-04-21T16:00:22.893Z,20.40
2019-04-21T16:02:50.697Z,20.30
2019-04-21T16:05:18.808Z,20.30
2019-04-21T16:07:45.841Z,20.20
2019-04-21T16:10:26.459Z,20.20
2019-04-21T16:12:43.283Z,20.10
2019-04-21T16:15:12.384Z,20.00
2019-04-21T16:17:39.355Z,19.90
2019-04-21T16:20:08.076Z,19.90
2019-04-21T16:22:34.919Z,19.80
2019-04-21T16:25:03.343Z,19.70
2019-04-21T16:27:30.183Z,19.60
2019-04-21T16:29:57.650Z,19.60
2019-04-21T16:32:24.100Z,19.50
2019-04-21T16:34:58.077Z,19.50
2019-04-21T16:37:19.478Z,19.40
2019-04-21T16:39:47.390Z,19.30
2019-04-21T16:42:14.249Z,19.20
2019-04-21T16:44:42.971Z,19.10
2019-04-21T16:47:11.668Z,18.80
2019-04-21T16:49:40.167Z,18.60
2019-04-21T16:52:16.293Z,18.30
2019-04-21T16:54:47.680Z,18.10
2019-04-21T16:57:17.642Z,18.00
2019-04-21T16:59:48.606Z,17.80
2019-04-21T17:02:16.627Z,17.80
2019-04-21T17:04:46.516Z,17.60
2019-04-21T17:07:15.101Z,17.40
2019-04-21T17:09:44.418Z,17.30
2019-04-21T17:12:14.208Z,17.20
2019-04-21T17:14:53.559Z,17.20
2019-04-21T17:17:32.408Z,17.10
2019-04-21T17:19:43.840Z,17.00
2019-04-21T17:22:07.951Z,16.90
2019-04-21T17:24:36.448Z,16.70
2019-04-21T17:27:05.359Z,16.70
2019-04-21T17:29:34.576Z,16.50
2019-04-21T17:32:07.423Z,16.40
2019-04-21T17:34:36.086Z,16.30
2019-04-21T17:37:05.546Z,16.20
2019-04-21T17:39:36.535Z,16.10
2019-04-21T17:42:14.151Z,15.90
2019-04-21T17:44:35.251Z,15.70
2019-04-21T17:47:11.671Z,15.60
2019-04-21T17:49:34.886Z,15.40
2019-04-21T17:52:23.766Z,15.40
2019-04-21T17:55:16.790Z,15.30
2019-04-21T17:57:54.435Z,15.20
2019-04-21T18:00:41.438Z,15.10
2019-04-21T18:02:57.360Z,15.00
2019-04-21T18:05:29.426Z,14.90
2019-04-21T18:07:54.771Z,14.70
2019-04-21T18:10:27.328Z,14.60
2019-04-21T18:12:49.148Z,14.50
2019-04-21T18:15:29.307Z,14.40
2019-04-21T18:17:38.597Z,14.20
2019-04-21T18:20:07.914Z,14.20
2019-04-21T18:22:57.216Z,14.10
2019-04-21T18:25:44.445Z,14.00
2019-04-21T18:27:57.058Z,13.90
2019-04-21T18:30:44.527Z,13.80
2019-04-21T18:33:22.872Z,13.70
2019-04-21T18:36:00.048Z,13.60
2019-04-21T18:39:04.094Z,13.50
2019-04-21T18:41:19.568Z,13.40
2019-04-21T18:47:06.927Z,13.20
2019-04-21T18:49:17.518Z,13.10
2019-04-21T18:51:57.097Z,13.00
2019-04-21T18:54:43.527Z,12.90
2019-04-21T18:57:04.390Z,12.90
2019-04-21T18:59:31.055Z,12.70
2019-04-21T19:02:02.174Z,12.70
2019-04-21T19:04:30.057Z,12.60
2019-04-21T19:07:09.347Z,12.60
2019-04-21T19:10:03.625Z,12.40
2019-04-21T19:12:16.468Z,12.30
2019-04-21T19:14:50.839Z,12.30
2019-04-21T19:17:27.148Z,12.30
2019-04-21T19:22:06.286Z,12.20
2019-04-21T19:24:50.619Z,12.20
2019-04-21T19:29:29.199Z,12.00
2019-04-21T19:31:59.440Z,11.90
2019-04-21T19:34:17.404Z,11.70
2019-04-21T19:36:41.502Z,11.70
2019-04-21T19:39:13.481Z,11.70
2019-04-21T19:41:52.176Z,11.60
2019-04-21T19:44:24.696Z,11.60
2019-04-21T19:46:49.250Z,11.50
2019-04-21T19:49:22.752Z,11.40
2019-04-21T19:51:42.849Z,11.30
2019-04-21T19:54:09.048Z,11.20
2019-04-21T19:56:28.020Z,11.10
2019-04-21T19:58:54.969Z,11.10
2019-04-21T20:01:21.471Z,11.00
2019-04-21T20:03:54.134Z,10.90
2019-04-21T20:06:34.407Z,10.90
2019-04-21T20:09:05.003Z,10.70
2019-04-21T20:11:30.585Z,10.60
2019-04-21T20:14:18.385Z,10.50
2019-04-21T20:16:35.966Z,10.50
2019-04-21T20:18:44.142Z,10.40
2019-04-21T20:21:08.102Z,10.40
2019-04-21T20:23:38.015Z,10.40
2019-04-21T20:26:08.120Z,10.30
2019-04-21T20:28:45.541Z,10.30
2019-04-21T20:31:18.880Z,10.10
2019-04-21T20:33:55.216Z,10.20
2019-04-21T20:36:23.818Z,10.10
2019-04-21T20:38:40.457Z,10.10
2019-04-21T20:41:02.228Z,10.20
2019-04-21T20:43:44.535Z,10.20
2019-04-21T20:46:07.986Z,10.20
2019-04-21T20:48:41.475Z,10.30
2019-04-21T20:51:06.103Z,10.30
2019-04-21T20:53:34.251Z,10.20
2019-04-21T20:56:00.592Z,10.20
2019-04-21T20:58:28.488Z,10.20
2019-04-21T21:03:28.858Z,9.90
2019-04-21T21:05:53.204Z,9.80
2019-04-21T21:08:30.880Z,9.80
2019-04-21T21:10:53.240Z,9.80
2019-04-21T21:13:32.295Z,9.80
2019-04-21T21:16:05.378Z,9.70
2019-04-21T21:18:41.037Z,9.60
2019-04-21T21:20:50.666Z,9.50
2019-04-21T21:23:11.902Z,9.40
2019-04-21T21:25:50.465Z,9.40
2019-04-21T21:28:04.402Z,9.30
2019-04-21T21:30:34.621Z,9.20
2019-04-21T21:33:15.227Z,9.10
2019-04-21T21:35:35.937Z,9.00
2019-04-21T21:38:08.363Z,8.90
2019-04-21T21:40:32.556Z,8.80
2019-04-21T21:42:47.543Z,8.70
2019-04-21T21:45:18.308Z,8.60
2019-04-21T21:48:01.021Z,8.50
2019-04-21T21:50:23.338Z,8.50
2019-04-21T21:52:51.193Z,8.40
2019-04-21T21:55:09.820Z,8.40
2019-04-21T21:57:44.358Z,8.40
2019-04-21T22:00:08.565Z,8.40
2019-04-21T22:02:45.521Z,8.20
2019-04-21T22:05:12.175Z,8.20
2019-04-21T22:07:35.579Z,8.10
2019-04-21T22:10:06.449Z,8.10
2019-04-21T22:12:43.427Z,7.90
2019-04-21T22:15:10.096Z,7.90
2019-04-21T22:17:46.328Z,7.80
2019-04-21T22:20:13.441Z,7.80
2019-04-21T22:22:38.916Z,7.70
2019-04-21T22:25:05.950Z,7.60
2019-04-21T22:27:23.326Z,7.60
2019-04-21T22:29:56.510Z,7.50
2019-04-21T22:32:24.524Z,7.30
2019-04-21T22:34:52.392Z,7.20
2019-04-21T22:37:30.262Z,7.30
2019-04-21T22:39:58.865Z,7.20
2019-04-21T22:42:17.964Z,7.10
2019-04-21T22:44:40.348Z,7.00
2019-04-21T22:47:14.176Z,6.90
2019-04-21T22:49:36.816Z,6.80
2019-04-21T22:52:11.114Z,6.70
2019-04-21T22:54:36.071Z,6.60
2019-04-21T22:57:07.313Z,6.50
2019-04-21T22:59:28.634Z,6.30
2019-04-21T23:01:57.481Z,6.30
2019-04-21T23:04:25.476Z,6.10
2019-04-21T23:06:59.242Z,6.10
2019-04-21T23:09:20.584Z,6.10
2019-04-21T23:11:50.873Z,6.00
2019-04-21T23:14:17.101Z,5.90
2019-04-21T23:16:45.587Z,5.90
2019-04-21T23:19:28.070Z,5.80
2019-04-21T23:21:58.904Z,5.70
2019-04-21T23:24:31.771Z,5.60
2019-04-21T23:26:49.343Z,5.50
2019-04-21T23:29:25.777Z,5.50
2019-04-21T23:31:52.142Z,5.50
2019-04-21T23:34:02.285Z,5.40
2019-04-21T23:36:32.185Z,5.30
2019-04-21T23:38:58.493Z,5.30
2019-04-21T23:41:26.070Z,5.10
2019-04-21T23:43:59.176Z,5.00
2019-04-21T23:46:26.803Z,5.00
2019-04-21T23:49:07.140Z,4.90
2019-04-21T23:51:33.313Z,4.90
2019-04-21T23:53:47.098Z,4.90
2019-04-21T23:56:23.162Z,4.80
2019-04-21T23:58:44.876Z,4.80
